• Join FlightAware (Why Join?)
  • Login
  • US Flag 
08:55PM EDT


 

Airport Tracker/Info


-or-


 

Live Flight TrackerFlight Track Log ✈ EGF2935 ✈ 13-May-2013 ✈ KMSN - KDFW

Flight Track Log - Related Links

Times and Time Zones

All times are in EDT time to prevent confusion due to time zone crossing. See the EGF2935 flight status page for this flight to view local times or setup timezone preferences in your user account.

Time Position Orientation Groundspeed Altitude Reporting Facility
EDT Latitude Longitude Course Direction KTS MPH feet Rate Location/Type
07:33AM 43.1367 -89.4094 209° Southwest 199 229 4,000  Level Chicago Center
07:34AM 42.8270 -89.5198 200° South  Level FlightAware Approximate
07:34AM 43.0669 -89.4514 204° Southwest 228 262 5,800  Level Chicago Center
07:35AM 42.7237 -89.5787 206° Southwest  Level FlightAware Approximate
07:35AM 42.9944 -89.4931 203° Southwest 269 310 7,900  Level Chicago Center
07:36AM 42.6229 -89.6459 206° Southwest  Level FlightAware Approximate
07:36AM 42.9214 -89.5356 203° Southwest 282 325 10,000  Level Chicago Center
07:37AM 42.5116 -89.7038 209° Southwest  Level FlightAware Approximate
07:37AM 42.8453 -89.5814 204° Southwest 297 342 11,400  Level Chicago Center
07:38AM 42.4072 -89.7821 209° Southwest  Level FlightAware Approximate
07:38AM 42.7603 -89.6336 204° Southwest 330 380 12,500  Level Chicago Center
07:39AM 42.6692 -89.6858 203° Southwest 351 404 14,100 1,320 Climbing Chicago Center
07:40AM 42.5778 -89.7406 204° Southwest 359 413 15,300 1,260 Climbing Chicago Center
07:41AM 42.4650 -89.8072 204° Southwest 375 432 16,800 1,200 Climbing Chicago Center
07:42AM 42.3653 -89.8644 203° Southwest 387 445 17,800 1,200 Climbing Chicago Center
07:43AM 42.2683 -89.9219 204° Southwest 389 448 19,400 1,500 Climbing Chicago Center
07:44AM 42.1678 -89.9800 203° Southwest 392 451 20,900 1,380 Climbing Chicago Center
07:45AM 42.0675 -90.0378 203° Southwest 393 452 22,300 1,380 Climbing Chicago Center
07:46AM 41.9658 -90.0972 204° Southwest 399 459 23,800 780 Climbing Chicago Center
07:47AM 41.8625 -90.1569 203° Southwest 405 466 24,000 480 Climbing Chicago Center
07:48AM 41.7369 -90.2289 203° Southwest 438 504 24,900 900 Climbing Chicago Center
07:49AM 41.6206 -90.2969 204° Southwest 453 521 25,900 480 Climbing Chicago Center
07:50AM 41.5036 -90.3633 203° Southwest 457 526 26,000 360 Climbing Chicago Center
07:51AM 41.3569 -90.4450 203° Southwest 471 542 26,700 960 Climbing Chicago Center
07:52AM 41.2350 -90.5150 203° Southwest 477 549 28,000 1,200 Climbing Chicago Center
07:53AM 41.1181 -90.5814 203° Southwest 467 537 29,300 960 Climbing Chicago Center
07:54AM 41.0025 -90.6456 203° Southwest 457 526 30,000 780 Climbing Chicago Center
07:55AM 40.8847 -90.7117 203° Southwest 459 528 31,000 960 Climbing Chicago Center
07:56AM 40.7656 -90.7769 203° Southwest 464 534 32,000 1,020 Climbing Chicago Center
07:57AM 40.6231 -90.8558 203° Southwest 465 535 33,200 1,020 Climbing Chicago Center
07:58AM 40.5056 -90.9211 203° Southwest 463 533 34,200 960 Climbing Chicago Center
07:59AM 40.3897 -90.9864 203° Southwest 459 528 35,200 900 Climbing Chicago Center
08:00AM 40.3181 -91.0236 202° Southwest 456 525 35,800 420 Climbing Kansas City Center
08:01AM 40.1922 -91.0919 203° Southwest 452 520 36,000 60 Climbing Kansas City Center
08:02AM 40.0722 -91.1581 203° Southwest 463 533 36,000  Level Kansas City Center
08:03AM 39.9450 -91.2275 203° Southwest 485 558 36,000  Level Kansas City Center
08:04AM 39.8169 -91.3028 204° Southwest 502 578 36,000  Level Kansas City Center
08:05AM 39.7022 -91.4031 214° Southwest 501 577 36,000  Level Kansas City Center
08:06AM 39.5875 -91.5019 214° Southwest 499 574 36,000  Level Kansas City Center
08:07AM 39.4706 -91.6008 213° Southwest 495 570 36,000  Level Kansas City Center
08:08AM 39.3394 -91.7125 213° Southwest 487 560 36,000  Level Kansas City Center
08:09AM 39.2308 -91.8025 213° Southwest 482 555 36,000  Level Kansas City Center
08:10AM 39.1194 -91.8967 213° Southwest 478 550 36,000  Level Kansas City Center
08:11AM 39.0089 -91.9911 214° Southwest 477 549 36,000  Level Kansas City Center
08:12AM 38.8972 -92.0836 213° Southwest 477 549 36,000  Level Kansas City Center
08:13AM 38.7864 -92.1772 213° Southwest 476 548 36,000  Level Kansas City Center
08:14AM 38.6750 -92.2683 213° Southwest 475 547 36,000  Level Kansas City Center
08:15AM 38.5408 -92.3794 213° Southwest 477 549 36,000  Level Kansas City Center
08:16AM 38.4286 -92.4708 213° Southwest 478 550 36,000  Level Kansas City Center
08:17AM 38.3158 -92.5633 213° Southwest 482 555 36,000  Level Kansas City Center
08:18AM 38.2039 -92.6539 212° Southwest 480 552 36,000  Level Kansas City Center
08:19AM 38.0894 -92.7478 213° Southwest 481 554 36,000  Level Kansas City Center
08:20AM 37.9797 -92.8361 212° Southwest 482 555 36,000  Level Kansas City Center
08:21AM 37.8664 -92.9269 212° Southwest 483 556 36,000  Level Kansas City Center
08:22AM 37.7533 -93.0169 212° Southwest 481 554 36,000  Level Kansas City Center
08:23AM 37.6172 -93.1256 212° Southwest 479 551 36,000  Level Kansas City Center
08:24AM 37.5036 -93.2161 212° Southwest 482 555 36,000  Level Kansas City Center
08:26AM 37.3881 -93.3061 212° Southwest 486 559 36,000  Level Kansas City Center
08:27AM 37.2722 -93.3917 210° Southwest 484 557 36,000  Level Kansas City Center
08:28AM 37.1561 -93.4753 210° Southwest 480 552 36,000  Level Kansas City Center
08:29AM 37.0414 -93.5597 210° Southwest 478 550 36,000  Level Kansas City Center
08:30AM 36.9258 -93.6422 210° Southwest 477 549 36,000  Level Kansas City Center
08:31AM 36.8019 -93.7283 209° Southwest 481 554 36,000  Level Kansas City Center
08:32AM 36.6756 -93.8181 210° Southwest 476 548 36,000  Level Kansas City Center
08:33AM 36.5603 -93.8997 210° Southwest 474 545 36,000  Level Kansas City Center
08:34AM 36.4453 -93.9811 210° Southwest 473 544 36,000  Level Kansas City Center
08:35AM 36.3294 -94.0608 209° Southwest 473 544 36,000  Level Kansas City Center
08:36AM 36.2058 -94.1211 201° Southwest 471 542 36,000  Level Kansas City Center
08:37AM 36.1089 -94.1669 201° Southwest 478 550 36,000  Level Memphis Center
08:38AM 35.9756 -94.2275 200° South 473 544 36,000  Level Memphis Center
08:39AM 35.8508 -94.2856 201° Southwest 473 544 36,000  Level Memphis Center
08:40AM 35.7300 -94.3464 202° Southwest 473 544 36,000  Level Memphis Center
08:41AM 35.6114 -94.4044 202° Southwest 473 544 36,000  Level Memphis Center
08:42AM 35.4928 -94.4575 200° South 473 544 36,000  Level Memphis Center
08:43AM 35.2717 -94.5606 201° Southwest 470 541 36,000  Level Fort Worth Center
08:44AM 35.1561 -94.6153 201° Southwest 464 534 36,000  Level Fort Worth Center
08:45AM 35.0344 -94.6750 202° Southwest 464 534 36,000  Level Fort Worth Center
08:46AM 34.9319 -94.7619 215° Southwest 464 534 36,000  Level Fort Worth Center
08:47AM 34.8422 -94.8658 224° Southwest 459 528 36,000  Level Fort Worth Center
08:48AM 34.7483 -94.9647 221° Southwest 451 519 36,000 -360 Level Fort Worth Center
08:49AM 34.6522 -95.0658 221° Southwest 456 525 35,300 -840 Descending Fort Worth Center
08:50AM 34.5561 -95.1694 222° Southwest 456 525 34,400 -960 Descending Fort Worth Center
08:51AM 34.4578 -95.2728 221° Southwest 464 534 33,400 -960 Descending Fort Worth Center
08:52AM 34.3592 -95.3783 221° Southwest 469 540 32,500 -960 Descending Fort Worth Center
08:53AM 34.2650 -95.4786 221° Southwest 469 540 31,500 -1,020 Descending Fort Worth Center
08:54AM 34.1561 -95.5939 221° Southwest 469 540 30,500 -960 Descending Fort Worth Center
08:55AM 34.0758 -95.6783 221° Southwest 469 540 29,600 -1,620 Descending Fort Worth Center
08:56AM 33.9811 -95.7803 222° Southwest 456 525 27,300 -2,700 Descending Fort Worth Center
08:57AM 33.8844 -95.8822 221° Southwest 456 525 24,300 -3,120 Descending Fort Worth Center
08:58AM 33.7875 -95.9864 222° Southwest 447 514 21,100 -3,240 Descending Fort Worth Center
08:59AM 33.7008 -96.0803 222° Southwest 425 489 17,900 -2,760 Descending Fort Worth Center
09:00AM 33.6203 -96.1661 222° Southwest 411 473 15,600 -2,220 Descending Fort Worth Center
09:01AM 33.5378 -96.2547 222° Southwest 403 464 13,500 -1,740 Descending Fort Worth Center
09:02AM 33.4633 -96.3303 220° Southwest 387 445 12,200 -1,200 Descending Fort Worth Center
09:03AM 33.4033 -96.3958 222° Southwest 317 365 11,200 -660 Descending Fort Worth Center
09:04AM 33.3433 -96.4661 224° Southwest 300 345 10,900 -660 Descending Fort Worth Center
09:05AM 33.2853 -96.5364 225° Southwest 295 339 9,900 -1,020 Descending Fort Worth Center
09:06AM 33.2336 -96.6064 229° Southwest 287 330 8,900 -1,020 Descending Fort Worth Center
09:07AM 33.2069 -96.6786 246° West 275 316 7,900 -1,020 Descending Fort Worth Center
09:08AM 33.1742 -96.7631 245° Southwest 260 299 6,900 -960 Descending Fort Worth Center
09:09AM 33.1408 -96.8281 239° Southwest 254 292 6,000 -1,260 Descending Fort Worth Center
09:10AM 33.1036 -96.9000 238° Southwest 254 292 4,400 -1,380 Descending Fort Worth Center
09:11AM 33.0728 -96.9697 242° Southwest 236 272 3,300 -780 Descending Fort Worth Center
09:12AM 33.0667 -97.0000 256° West 146 168 3,100 -300 Descending Dallas / Fort Worth TRACON